Terminal Aerodrome Forecast
Issued by NWS

Current Version | Previous Version | Text Only | Print | Product List | Glossary On
Versions: 1 2 3 4 5 6 7 8 9 10 11 12 13 14
000
FTUS45 KVEF 230538
TAFBIH
TAF
KBIH 230538Z 2306/2406 VRB06KT P6SM BKN060
     FM231000 34008KT P6SM BKN100
     FM232000 33010KT P6SM VCSH SCT060 BKN100=

USA.gov is the U.S. government's official web portal to all federal, state and local government web resources and services.